createdAt,value
2023-05-12T00:03:08.038Z,5.32
2023-05-12T00:08:11.928Z,5.68
2023-05-12T00:13:15.799Z,4.45
2023-05-12T00:18:20.973Z,4.85
2023-05-12T00:23:24.659Z,5.28
2023-05-12T00:28:28.111Z,4.15
2023-05-12T00:33:32.929Z,4.88
2023-05-12T00:38:37.355Z,5.35
2023-05-12T00:43:40.876Z,8.65
2023-05-12T00:48:46.245Z,4.18
2023-05-12T00:53:51.423Z,5.47
2023-05-12T00:58:54.860Z,4.78
2023-05-12T01:04:00.185Z,4.57
2023-05-12T01:09:04.268Z,4.72
2023-05-12T01:14:07.689Z,5.82
2023-05-12T01:19:41.702Z,5.03
2023-05-12T01:24:55.205Z,5.10
2023-05-12T01:30:03.254Z,6.30
2023-05-12T01:35:11.335Z,6.45
2023-05-12T01:40:19.806Z,5.68
2023-05-12T01:45:25.571Z,5.47
2023-05-12T01:50:30.450Z,4.78
2023-05-12T01:55:34.846Z,4.88
2023-05-12T02:00:40.205Z,4.20
2023-05-12T02:05:49.625Z,4.05
2023-05-12T02:11:07.045Z,7.70
2023-05-12T02:16:12.699Z,6.20
2023-05-12T02:21:17.217Z,4.07
2023-05-12T02:26:21.229Z,4.82
2023-05-12T02:31:26.511Z,4.43
2023-05-12T02:36:30.146Z,4.25
2023-05-12T02:41:33.560Z,4.55
2023-05-12T02:46:38.715Z,7.70
2023-05-12T02:56:58.428Z,6.13
2023-05-12T03:02:03.241Z,5.35
2023-05-12T03:07:08.852Z,4.97
2023-05-12T03:12:16.735Z,5.53
2023-05-12T03:17:22.052Z,5.22
2023-05-12T03:22:27.713Z,5.07
2023-05-12T03:27:36.462Z,4.82
2023-05-12T03:32:42.043Z,4.83
2023-05-12T03:37:49.086Z,4.83
2023-05-12T03:42:55.711Z,5.38
2023-05-12T03:48:00.592Z,5.28
2023-05-12T03:53:05.962Z,4.95
2023-05-12T03:58:15.810Z,3.08
2023-05-12T04:03:21.758Z,4.55
2023-05-12T04:08:27.462Z,3.17
2023-05-12T04:13:34.250Z,3.45
2023-05-12T04:18:39.221Z,4.63
2023-05-12T04:23:46.241Z,4.13
2023-05-12T04:28:53.438Z,3.47
2023-05-12T04:33:58.567Z,7.27
2023-05-12T04:39:03.837Z,4.15
2023-05-12T04:44:12.466Z,4.60
2023-05-12T04:49:18.429Z,3.53
2023-05-12T04:54:26.049Z,3.53
2023-05-12T04:59:34.791Z,4.00
2023-05-12T05:04:39.820Z,3.10
2023-05-12T05:09:45.658Z,3.35
2023-05-12T05:14:52.678Z,4.63
2023-05-12T05:19:59.564Z,5.07
2023-05-12T05:25:11.265Z,5.10
2023-05-12T05:30:17.849Z,4.30
2023-05-12T05:35:23.878Z,5.75
2023-05-12T05:40:36.046Z,4.45
2023-05-12T05:45:51.953Z,4.63
2023-05-12T05:51:00.670Z,4.10
2023-05-12T05:56:06.282Z,4.10
2023-05-12T06:01:14.441Z,5.55
2023-05-12T06:06:19.771Z,5.95
2023-05-12T06:11:24.796Z,4.03
2023-05-12T06:16:31.393Z,4.25
2023-05-12T06:21:36.349Z,5.47
2023-05-12T06:26:41.703Z,2.47
2023-05-12T06:31:48.126Z,3.10
2023-05-12T06:36:55.123Z,3.33
2023-05-12T06:42:02.437Z,2.85
2023-05-12T06:47:20.170Z,3.85
2023-05-12T06:52:27.138Z,3.08
2023-05-12T06:57:32.051Z,4.30
2023-05-12T07:02:38.321Z,4.25
2023-05-12T07:07:43.162Z,6.15
2023-05-12T07:12:48.628Z,6.20
2023-05-12T07:17:56.081Z,8.27
2023-05-12T07:28:06.188Z,2.45
2023-05-12T07:33:13.400Z,4.13
2023-05-12T07:38:18.424Z,5.65
2023-05-12T07:43:23.233Z,3.53
2023-05-12T07:48:30.176Z,3.35
2023-05-12T07:53:35.153Z,9.90
2023-05-12T07:58:40.384Z,19.90
2023-05-12T08:03:46.855Z,8.43
2023-05-12T08:08:51.807Z,10.05
2023-05-12T08:13:56.680Z,6.40
2023-05-12T08:19:02.888Z,3.63
2023-05-12T08:24:08.285Z,4.03
2023-05-12T08:29:13.243Z,5.47
2023-05-12T08:34:19.927Z,4.57
2023-05-12T08:39:25.245Z,9.38
2023-05-12T08:44:31.533Z,4.60
2023-05-12T08:49:39.131Z,2.55
2023-05-12T09:00:02.287Z,2.10
2023-05-12T09:05:09.986Z,6.93
2023-05-12T09:15:46.377Z,4.05
2023-05-12T09:20:52.974Z,4.90
2023-05-12T09:26:04.245Z,3.58
2023-05-12T09:31:20.961Z,3.65
2023-05-12T09:36:28.350Z,3.13
2023-05-12T09:41:33.633Z,4.22
2023-05-12T09:46:40.010Z,4.70
2023-05-12T09:51:46.635Z,4.85
2023-05-12T09:56:52.089Z,5.25
2023-05-12T10:02:02.084Z,4.65
2023-05-12T10:07:12.220Z,3.35
2023-05-12T10:12:19.053Z,4.53
2023-05-12T10:17:24.551Z,4.97
2023-05-12T10:22:32.960Z,4.18
2023-05-12T10:27:38.266Z,4.75
2023-05-12T10:32:43.055Z,3.92
2023-05-12T10:37:49.839Z,5.82
2023-05-12T10:42:54.676Z,4.30
2023-05-12T10:48:10.212Z,4.70
2023-05-12T10:53:18.350Z,4.07
2023-05-12T10:58:23.491Z,3.58
2023-05-12T11:03:29.202Z,3.92
2023-05-12T11:08:40.092Z,4.65
2023-05-12T11:13:47.375Z,4.13
2023-05-12T11:19:05.825Z,4.20
2023-05-12T11:24:15.300Z,4.10
2023-05-12T11:29:21.256Z,4.25
2023-05-12T11:34:28.203Z,5.57
2023-05-12T11:39:34.801Z,4.50
2023-05-12T11:44:49.228Z,4.80
2023-05-12T11:49:57.761Z,5.18
2023-05-12T11:55:06.298Z,3.70
2023-05-12T12:00:13.357Z,5.00
2023-05-12T12:05:22.930Z,3.53
2023-05-12T12:10:29.476Z,5.15
2023-05-12T12:15:34.403Z,3.60
2023-05-12T12:20:39.501Z,4.25
2023-05-12T12:25:47.658Z,3.17
2023-05-12T12:30:54.132Z,2.80
2023-05-12T12:35:59.147Z,3.22
2023-05-12T12:41:05.976Z,3.25
2023-05-12T12:46:11.301Z,3.27
2023-05-12T12:51:16.357Z,2.38
2023-05-12T12:56:24.982Z,3.38
2023-05-12T13:01:30.379Z,2.55
2023-05-12T13:06:36.133Z,5.35
2023-05-12T13:11:42.795Z,2.95
2023-05-12T13:16:48.557Z,3.35
2023-05-12T13:21:54.145Z,1.77
2023-05-12T13:27:00.589Z,3.13
2023-05-12T13:32:06.262Z,2.05
2023-05-12T13:37:11.506Z,3.10
2023-05-12T13:42:18.445Z,2.08
2023-05-12T13:47:23.312Z,2.03
2023-05-12T13:52:28.365Z,2.30
2023-05-12T13:57:36.014Z,2.30
2023-05-12T14:02:41.242Z,2.75
2023-05-12T14:07:46.120Z,2.75
2023-05-12T14:12:52.570Z,2.38
2023-05-12T14:17:57.626Z,3.22
2023-05-12T14:23:02.530Z,2.97
2023-05-12T14:28:09.194Z,3.17
2023-05-12T14:33:14.333Z,1.75
2023-05-12T14:38:19.218Z,2.58
2023-05-12T14:43:25.624Z,3.65
2023-05-12T14:48:31.913Z,2.30
2023-05-12T14:53:37.159Z,2.65
2023-05-12T14:58:43.769Z,2.10
2023-05-12T15:03:48.927Z,2.22
2023-05-12T15:08:54.958Z,1.98
2023-05-12T15:14:04.502Z,2.45
2023-05-12T15:19:09.826Z,2.13
2023-05-12T15:24:14.844Z,2.17
2023-05-12T15:29:22.746Z,2.65
2023-05-12T15:34:27.599Z,1.98
2023-05-12T15:39:34.130Z,1.45
2023-05-12T15:44:44.751Z,3.80
2023-05-12T15:49:51.181Z,5.30
2023-05-12T15:54:56.589Z,5.15
2023-05-12T16:00:05.717Z,3.53
2023-05-12T16:05:20.173Z,5.97
2023-05-12T16:10:26.868Z,10.73
2023-05-12T16:15:34.850Z,12.27
2023-05-12T16:20:42.064Z,6.50
2023-05-12T16:25:49.365Z,11.38
2023-05-12T16:30:57.552Z,30.63
2023-05-12T16:36:03.851Z,34.10
2023-05-12T16:41:10.100Z,36.33
2023-05-12T16:46:18.314Z,41.10
2023-05-12T16:51:24.876Z,52.50
2023-05-12T16:56:31.165Z,44.25
2023-05-12T17:01:39.918Z,45.45
2023-05-12T17:06:44.782Z,41.58
2023-05-12T17:11:49.876Z,28.85
2023-05-12T17:16:56.442Z,27.63
2023-05-12T17:22:01.686Z,30.05
2023-05-12T17:27:07.162Z,27.08
2023-05-12T17:32:15.281Z,27.95
2023-05-12T17:37:20.646Z,27.15
2023-05-12T17:42:28.932Z,23.60
2023-05-12T17:47:35.190Z,21.05
2023-05-12T17:52:40.691Z,16.17
2023-05-12T17:57:45.515Z,17.25
2023-05-12T18:02:52.513Z,17.08
2023-05-12T18:07:57.478Z,16.50
2023-05-12T18:13:02.849Z,14.60
2023-05-12T18:18:10.401Z,13.95
2023-05-12T18:28:21.541Z,30.10
2023-05-12T18:33:31.658Z,19.17
2023-05-12T18:38:36.697Z,13.60
2023-05-12T18:43:45.089Z,10.80
2023-05-12T18:48:55.452Z,10.32
2023-05-12T18:54:01.409Z,11.00
2023-05-12T18:59:07.809Z,11.60
2023-05-12T19:04:14.894Z,11.88
2023-05-12T19:09:20.780Z,10.00
2023-05-12T19:14:25.933Z,10.70
2023-05-12T19:19:32.305Z,7.60
2023-05-12T19:24:38.247Z,8.70
2023-05-12T19:29:43.058Z,10.45
2023-05-12T19:34:51.246Z,7.70
2023-05-12T19:39:55.741Z,9.00
2023-05-12T19:45:01.068Z,9.20
2023-05-12T19:50:09.760Z,8.68
2023-05-12T19:55:13.726Z,8.32
2023-05-12T20:00:22.335Z,7.22
2023-05-12T20:05:30.125Z,6.78
2023-05-12T20:10:34.965Z,8.98
2023-05-12T20:15:40.379Z,7.80
2023-05-12T20:20:46.910Z,10.10
2023-05-12T20:25:53.042Z,7.05
2023-05-12T20:30:58.789Z,10.98
2023-05-12T20:36:05.609Z,7.80
2023-05-12T20:41:11.727Z,9.20
2023-05-12T20:46:17.160Z,6.97
2023-05-12T20:51:23.914Z,6.05
2023-05-12T20:56:28.788Z,7.70
2023-05-12T21:01:33.818Z,5.90
2023-05-12T21:06:40.581Z,11.82
2023-05-12T21:11:45.441Z,7.67
2023-05-12T21:16:50.892Z,6.43
2023-05-12T21:21:57.263Z,5.35
2023-05-12T21:27:04.840Z,6.30
2023-05-12T21:37:17.807Z,6.60
2023-05-12T21:42:24.650Z,6.80
2023-05-12T21:47:30.664Z,5.30
2023-05-12T21:52:39.948Z,7.25
2023-05-12T21:57:46.628Z,7.03
2023-05-12T22:02:51.915Z,5.37
2023-05-12T22:07:58.574Z,7.97
2023-05-12T22:13:03.538Z,5.20
2023-05-12T22:18:08.861Z,9.43
2023-05-12T22:23:15.306Z,7.38
2023-05-12T22:28:21.223Z,5.00
2023-05-12T22:33:26.637Z,6.30
2023-05-12T22:38:33.211Z,6.20
2023-05-12T22:43:38.084Z,6.75
2023-05-12T22:48:43.472Z,5.47
2023-05-12T22:53:49.648Z,6.55
2023-05-12T22:58:54.680Z,6.13
2023-05-12T23:03:59.822Z,4.22
2023-05-12T23:09:06.191Z,4.60
2023-05-12T23:14:11.663Z,8.00
2023-05-12T23:19:16.936Z,6.88
2023-05-12T23:24:25.250Z,5.05
2023-05-12T23:29:31.186Z,4.13
2023-05-12T23:34:36.635Z,6.00
2023-05-12T23:39:44.971Z,4.38
2023-05-12T23:44:50.628Z,9.50
2023-05-12T23:49:55.846Z,8.80
2023-05-12T23:55:02.593Z,5.50
